sensor_id;sensor_type;location;lat;lon;timestamp;P1;durP1;ratioP1;P2;durP2;ratioP2
18776;SDS011;9517;51.174;4.160;2023-02-24T00:02:09;27.83;;;4.13;;
18776;SDS011;9517;51.174;4.160;2023-02-24T00:04:39;35.43;;;4.70;;
18776;SDS011;9517;51.174;4.160;2023-02-24T00:07:06;25.40;;;3.43;;
18776;SDS011;9517;51.174;4.160;2023-02-24T00:09:37;31.37;;;4.43;;
18776;SDS011;9517;51.174;4.160;2023-02-24T00:12:05;30.57;;;4.57;;
18776;SDS011;9517;51.174;4.160;2023-02-24T00:14:39;29.03;;;5.00;;
18776;SDS011;9517;51.174;4.160;2023-02-24T00:17:08;31.00;;;4.40;;
18776;SDS011;9517;51.174;4.160;2023-02-24T00:19:38;30.47;;;4.73;;
18776;SDS011;9517;51.174;4.160;2023-02-24T00:22:06;27.87;;;3.90;;
18776;SDS011;9517;51.174;4.160;2023-02-24T00:24:34;39.30;;;4.83;;
18776;SDS011;9517;51.174;4.160;2023-02-24T00:27:05;25.73;;;4.03;;
18776;SDS011;9517;51.174;4.160;2023-02-24T00:29:35;25.00;;;3.67;;
18776;SDS011;9517;51.174;4.160;2023-02-24T00:32:05;26.83;;;4.50;;
18776;SDS011;9517;51.174;4.160;2023-02-24T00:34:36;30.33;;;4.83;;
18776;SDS011;9517;51.174;4.160;2023-02-24T00:37:04;27.43;;;4.13;;
18776;SDS011;9517;51.174;4.160;2023-02-24T00:39:32;36.50;;;4.70;;
18776;SDS011;9517;51.174;4.160;2023-02-24T00:42:01;29.23;;;4.90;;
18776;SDS011;9517;51.174;4.160;2023-02-24T00:44:33;32.83;;;4.77;;
18776;SDS011;9517;51.174;4.160;2023-02-24T00:47:02;28.70;;;4.40;;
18776;SDS011;9517;51.174;4.160;2023-02-24T00:49:34;34.17;;;4.37;;
18776;SDS011;9517;51.174;4.160;2023-02-24T00:52:06;32.80;;;4.97;;
18776;SDS011;9517;51.174;4.160;2023-02-24T00:54:37;31.60;;;4.80;;
18776;SDS011;9517;51.174;4.160;2023-02-24T00:57:05;29.77;;;4.43;;
18776;SDS011;9517;51.174;4.160;2023-02-24T00:59:33;31.27;;;6.00;;
18776;SDS011;9517;51.174;4.160;2023-02-24T01:02:00;27.53;;;5.23;;
18776;SDS011;9517;51.174;4.160;2023-02-24T01:04:30;32.80;;;5.00;;
18776;SDS011;9517;51.174;4.160;2023-02-24T01:06:57;30.70;;;5.27;;
18776;SDS011;9517;51.174;4.160;2023-02-24T01:09:26;33.30;;;6.83;;
18776;SDS011;9517;51.174;4.160;2023-02-24T01:11:55;23.97;;;4.30;;
18776;SDS011;9517;51.174;4.160;2023-02-24T01:14:40;27.17;;;4.33;;
18776;SDS011;9517;51.174;4.160;2023-02-24T01:17:11;24.97;;;4.40;;
18776;SDS011;9517;51.174;4.160;2023-02-24T01:19:40;23.50;;;3.73;;
18776;SDS011;9517;51.174;4.160;2023-02-24T01:22:08;20.50;;;4.03;;
18776;SDS011;9517;51.174;4.160;2023-02-24T01:24:40;34.40;;;5.73;;
18776;SDS011;9517;51.174;4.160;2023-02-24T01:27:09;31.40;;;4.30;;
18776;SDS011;9517;51.174;4.160;2023-02-24T01:29:36;30.27;;;4.20;;
18776;SDS011;9517;51.174;4.160;2023-02-24T01:32:05;23.03;;;3.83;;
18776;SDS011;9517;51.174;4.160;2023-02-24T01:34:36;28.47;;;4.80;;
18776;SDS011;9517;51.174;4.160;2023-02-24T01:37:08;22.73;;;3.47;;
18776;SDS011;9517;51.174;4.160;2023-02-24T01:39:39;20.13;;;4.20;;
18776;SDS011;9517;51.174;4.160;2023-02-24T01:42:06;28.97;;;4.20;;
18776;SDS011;9517;51.174;4.160;2023-02-24T01:47:39;20.43;;;3.70;;
18776;SDS011;9517;51.174;4.160;2023-02-24T01:50:07;33.57;;;4.87;;
18776;SDS011;9517;51.174;4.160;2023-02-24T01:52:40;26.73;;;4.23;;
18776;SDS011;9517;51.174;4.160;2023-02-24T01:55:11;32.20;;;4.30;;
18776;SDS011;9517;51.174;4.160;2023-02-24T01:57:44;32.63;;;4.60;;
18776;SDS011;9517;51.174;4.160;2023-02-24T02:00:12;35.77;;;5.67;;
18776;SDS011;9517;51.174;4.160;2023-02-24T02:02:57;34.87;;;4.60;;
18776;SDS011;9517;51.174;4.160;2023-02-24T02:05:32;30.07;;;4.47;;
18776;SDS011;9517;51.174;4.160;2023-02-24T02:08:00;30.63;;;5.43;;
18776;SDS011;9517;51.174;4.160;2023-02-24T02:10:33;32.33;;;4.97;;
18776;SDS011;9517;51.174;4.160;2023-02-24T02:13:04;27.13;;;4.23;;
18776;SDS011;9517;51.174;4.160;2023-02-24T02:15:34;25.53;;;4.23;;
18776;SDS011;9517;51.174;4.160;2023-02-24T02:18:10;25.90;;;4.60;;
18776;SDS011;9517;51.174;4.160;2023-02-24T02:20:49;23.13;;;3.87;;
18776;SDS011;9517;51.174;4.160;2023-02-24T02:23:57;28.10;;;4.70;;
18776;SDS011;9517;51.174;4.160;2023-02-24T02:26:59;24.27;;;4.10;;
18776;SDS011;9517;51.174;4.160;2023-02-24T02:32:42;29.20;;;4.80;;
18776;SDS011;9517;51.174;4.160;2023-02-24T02:35:41;30.33;;;4.27;;
18776;SDS011;9517;51.174;4.160;2023-02-24T02:38:16;24.20;;;4.23;;
18776;SDS011;9517;51.174;4.160;2023-02-24T02:40:55;25.60;;;4.67;;
18776;SDS011;9517;51.174;4.160;2023-02-24T02:43:32;27.30;;;4.77;;
18776;SDS011;9517;51.174;4.160;2023-02-24T02:46:05;23.50;;;5.10;;
18776;SDS011;9517;51.174;4.160;2023-02-24T02:48:39;23.50;;;4.10;;
18776;SDS011;9517;51.174;4.160;2023-02-24T02:51:15;22.63;;;4.60;;
18776;SDS011;9517;51.174;4.160;2023-02-24T02:53:47;21.63;;;4.27;;
18776;SDS011;9517;51.174;4.160;2023-02-24T02:56:22;27.57;;;4.50;;
18776;SDS011;9517;51.174;4.160;2023-02-24T02:58:54;25.40;;;5.07;;
18776;SDS011;9517;51.174;4.160;2023-02-24T03:01:25;24.23;;;4.40;;
18776;SDS011;9517;51.174;4.160;2023-02-24T03:03:55;20.93;;;4.07;;
18776;SDS011;9517;51.174;4.160;2023-02-24T03:06:31;21.97;;;4.30;;
18776;SDS011;9517;51.174;4.160;2023-02-24T03:09:02;18.07;;;4.20;;
18776;SDS011;9517;51.174;4.160;2023-02-24T03:11:36;24.87;;;3.70;;
18776;SDS011;9517;51.174;4.160;2023-02-24T03:14:07;18.27;;;3.20;;
18776;SDS011;9517;51.174;4.160;2023-02-24T03:16:37;22.93;;;3.70;;
18776;SDS011;9517;51.174;4.160;2023-02-24T03:19:07;23.53;;;3.40;;
18776;SDS011;9517;51.174;4.160;2023-02-24T03:21:41;25.87;;;3.80;;
18776;SDS011;9517;51.174;4.160;2023-02-24T03:24:11;25.13;;;3.73;;
18776;SDS011;9517;51.174;4.160;2023-02-24T03:26:40;23.43;;;4.77;;
18776;SDS011;9517;51.174;4.160;2023-02-24T03:29:14;17.30;;;3.10;;
18776;SDS011;9517;51.174;4.160;2023-02-24T03:31:49;15.63;;;3.70;;
18776;SDS011;9517;51.174;4.160;2023-02-24T03:34:20;23.07;;;3.60;;
18776;SDS011;9517;51.174;4.160;2023-02-24T03:36:54;19.20;;;2.20;;
18776;SDS011;9517;51.174;4.160;2023-02-24T03:39:22;22.77;;;3.27;;
18776;SDS011;9517;51.174;4.160;2023-02-24T03:41:51;20.33;;;3.63;;
18776;SDS011;9517;51.174;4.160;2023-02-24T03:44:22;23.80;;;2.97;;
18776;SDS011;9517;51.174;4.160;2023-02-24T03:46:50;12.37;;;2.63;;
18776;SDS011;9517;51.174;4.160;2023-02-24T03:49:19;16.87;;;2.60;;
18776;SDS011;9517;51.174;4.160;2023-02-24T03:51:49;18.93;;;3.20;;
18776;SDS011;9517;51.174;4.160;2023-02-24T03:54:28;18.97;;;3.40;;
18776;SDS011;9517;51.174;4.160;2023-02-24T03:57:21;17.33;;;2.50;;
18776;SDS011;9517;51.174;4.160;2023-02-24T03:59:57;17.63;;;2.80;;
18776;SDS011;9517;51.174;4.160;2023-02-24T04:02:47;20.07;;;2.97;;
18776;SDS011;9517;51.174;4.160;2023-02-24T04:05:24;16.13;;;2.83;;
18776;SDS011;9517;51.174;4.160;2023-02-24T04:07:56;14.60;;;2.50;;
18776;SDS011;9517;51.174;4.160;2023-02-24T04:10:28;18.63;;;3.27;;
18776;SDS011;9517;51.174;4.160;2023-02-24T04:13:03;18.43;;;3.10;;
18776;SDS011;9517;51.174;4.160;2023-02-24T04:15:43;19.17;;;2.83;;
18776;SDS011;9517;51.174;4.160;2023-02-24T04:18:16;16.87;;;3.00;;
18776;SDS011;9517;51.174;4.160;2023-02-24T04:20:46;21.20;;;3.40;;
18776;SDS011;9517;51.174;4.160;2023-02-24T04:23:19;23.73;;;3.37;;
18776;SDS011;9517;51.174;4.160;2023-02-24T04:25:52;28.47;;;3.77;;
18776;SDS011;9517;51.174;4.160;2023-02-24T04:28:21;19.67;;;3.27;;
18776;SDS011;9517;51.174;4.160;2023-02-24T04:30:50;17.27;;;3.27;;
18776;SDS011;9517;51.174;4.160;2023-02-24T04:33:20;19.50;;;3.10;;
18776;SDS011;9517;51.174;4.160;2023-02-24T04:35:48;20.63;;;3.10;;
18776;SDS011;9517;51.174;4.160;2023-02-24T04:38:18;19.70;;;3.00;;
18776;SDS011;9517;51.174;4.160;2023-02-24T04:40:48;15.77;;;2.70;;
18776;SDS011;9517;51.174;4.160;2023-02-24T04:43:16;18.13;;;3.97;;
18776;SDS011;9517;51.174;4.160;2023-02-24T04:45:44;21.07;;;3.50;;
18776;SDS011;9517;51.174;4.160;2023-02-24T04:48:12;20.07;;;3.63;;
18776;SDS011;9517;51.174;4.160;2023-02-24T04:50:40;20.47;;;3.63;;
18776;SDS011;9517;51.174;4.160;2023-02-24T04:53:08;22.33;;;4.20;;
18776;SDS011;9517;51.174;4.160;2023-02-24T04:55:39;21.53;;;3.90;;
18776;SDS011;9517;51.174;4.160;2023-02-24T04:58:08;20.73;;;3.73;;
18776;SDS011;9517;51.174;4.160;2023-02-24T05:00:36;18.93;;;3.67;;
18776;SDS011;9517;51.174;4.160;2023-02-24T05:03:06;22.90;;;4.50;;
18776;SDS011;9517;51.174;4.160;2023-02-24T05:05:35;23.27;;;4.70;;
18776;SDS011;9517;51.174;4.160;2023-02-24T05:08:17;17.90;;;3.70;;
18776;SDS011;9517;51.174;4.160;2023-02-24T05:10:46;24.43;;;4.27;;
18776;SDS011;9517;51.174;4.160;2023-02-24T05:13:15;21.70;;;4.20;;
18776;SDS011;9517;51.174;4.160;2023-02-24T05:15:44;19.13;;;4.07;;
18776;SDS011;9517;51.174;4.160;2023-02-24T05:18:12;22.13;;;4.00;;
18776;SDS011;9517;51.174;4.160;2023-02-24T05:20:44;18.10;;;3.63;;
18776;SDS011;9517;51.174;4.160;2023-02-24T05:23:30;27.47;;;4.30;;
18776;SDS011;9517;51.174;4.160;2023-02-24T05:26:00;21.50;;;3.67;;
18776;SDS011;9517;51.174;4.160;2023-02-24T05:28:40;21.23;;;3.90;;
18776;SDS011;9517;51.174;4.160;2023-02-24T05:31:09;24.07;;;3.93;;
18776;SDS011;9517;51.174;4.160;2023-02-24T05:33:39;24.27;;;4.70;;
18776;SDS011;9517;51.174;4.160;2023-02-24T05:36:09;22.20;;;3.90;;
18776;SDS011;9517;51.174;4.160;2023-02-24T05:38:39;17.67;;;3.27;;
18776;SDS011;9517;51.174;4.160;2023-02-24T05:41:10;21.23;;;3.80;;
18776;SDS011;9517;51.174;4.160;2023-02-24T05:43:41;24.40;;;3.70;;
18776;SDS011;9517;51.174;4.160;2023-02-24T05:46:12;19.27;;;3.33;;
18776;SDS011;9517;51.174;4.160;2023-02-24T05:48:40;22.33;;;3.80;;
18776;SDS011;9517;51.174;4.160;2023-02-24T05:51:08;18.83;;;3.73;;
18776;SDS011;9517;51.174;4.160;2023-02-24T05:53:36;22.57;;;3.60;;
18776;SDS011;9517;51.174;4.160;2023-02-24T05:56:06;16.50;;;3.40;;
18776;SDS011;9517;51.174;4.160;2023-02-24T05:58:35;16.47;;;4.23;;
18776;SDS011;9517;51.174;4.160;2023-02-24T06:01:08;20.50;;;3.30;;
18776;SDS011;9517;51.174;4.160;2023-02-24T06:03:40;16.30;;;3.03;;
18776;SDS011;9517;51.174;4.160;2023-02-24T06:06:11;20.00;;;2.67;;
18776;SDS011;9517;51.174;4.160;2023-02-24T06:08:38;22.53;;;4.13;;
18776;SDS011;9517;51.174;4.160;2023-02-24T06:11:13;21.93;;;3.33;;
18776;SDS011;9517;51.174;4.160;2023-02-24T06:13:44;21.50;;;3.33;;
18776;SDS011;9517;51.174;4.160;2023-02-24T06:16:12;18.90;;;3.77;;
18776;SDS011;9517;51.174;4.160;2023-02-24T06:18:40;18.47;;;3.47;;
18776;SDS011;9517;51.174;4.160;2023-02-24T06:21:08;18.50;;;2.93;;
18776;SDS011;9517;51.174;4.160;2023-02-24T06:23:37;23.87;;;3.60;;
18776;SDS011;9517;51.174;4.160;2023-02-24T06:26:05;16.97;;;3.20;;
18776;SDS011;9517;51.174;4.160;2023-02-24T06:28:37;20.03;;;3.37;;
18776;SDS011;9517;51.174;4.160;2023-02-24T06:31:09;22.30;;;3.17;;
18776;SDS011;9517;51.174;4.160;2023-02-24T06:33:38;16.30;;;3.10;;
18776;SDS011;9517;51.174;4.160;2023-02-24T06:36:06;34.43;;;4.13;;
18776;SDS011;9517;51.174;4.160;2023-02-24T06:38:34;28.40;;;3.50;;
18776;SDS011;9517;51.174;4.160;2023-02-24T06:41:04;18.77;;;3.07;;
18776;SDS011;9517;51.174;4.160;2023-02-24T06:43:35;20.83;;;3.87;;
18776;SDS011;9517;51.174;4.160;2023-02-24T06:46:04;23.37;;;3.93;;
18776;SDS011;9517;51.174;4.160;2023-02-24T06:48:33;26.90;;;3.87;;
18776;SDS011;9517;51.174;4.160;2023-02-24T06:51:02;26.67;;;3.40;;
18776;SDS011;9517;51.174;4.160;2023-02-24T06:53:30;21.20;;;4.03;;
18776;SDS011;9517;51.174;4.160;2023-02-24T06:56:03;25.10;;;4.40;;
18776;SDS011;9517;51.174;4.160;2023-02-24T06:58:39;16.57;;;4.20;;
18776;SDS011;9517;51.174;4.160;2023-02-24T07:01:08;30.73;;;4.30;;
18776;SDS011;9517;51.174;4.160;2023-02-24T07:03:38;27.73;;;4.33;;
18776;SDS011;9517;51.174;4.160;2023-02-24T07:06:11;24.60;;;4.07;;
18776;SDS011;9517;51.174;4.160;2023-02-24T07:08:50;22.83;;;4.67;;
18776;SDS011;9517;51.174;4.160;2023-02-24T07:11:18;16.73;;;4.47;;
18776;SDS011;9517;51.174;4.160;2023-02-24T07:13:46;27.37;;;5.20;;
18776;SDS011;9517;51.174;4.160;2023-02-24T07:16:16;21.97;;;4.77;;
18776;SDS011;9517;51.174;4.160;2023-02-24T07:18:51;24.20;;;4.43;;
18776;SDS011;9517;51.174;4.160;2023-02-24T07:21:21;34.13;;;5.57;;
18776;SDS011;9517;51.174;4.160;2023-02-24T07:23:49;25.20;;;5.00;;
18776;SDS011;9517;51.174;4.160;2023-02-24T07:26:21;26.97;;;4.50;;
18776;SDS011;9517;51.174;4.160;2023-02-24T07:28:49;18.57;;;4.67;;
18776;SDS011;9517;51.174;4.160;2023-02-24T07:31:19;23.70;;;5.10;;
18776;SDS011;9517;51.174;4.160;2023-02-24T07:33:51;21.63;;;4.90;;
18776;SDS011;9517;51.174;4.160;2023-02-24T07:36:21;24.47;;;4.60;;
18776;SDS011;9517;51.174;4.160;2023-02-24T07:38:51;19.93;;;4.27;;
18776;SDS011;9517;51.174;4.160;2023-02-24T07:41:20;24.10;;;4.87;;
18776;SDS011;9517;51.174;4.160;2023-02-24T07:43:48;32.90;;;4.73;;
18776;SDS011;9517;51.174;4.160;2023-02-24T07:46:16;24.57;;;4.60;;
18776;SDS011;9517;51.174;4.160;2023-02-24T07:48:45;21.83;;;5.40;;
18776;SDS011;9517;51.174;4.160;2023-02-24T07:51:14;32.20;;;5.67;;
18776;SDS011;9517;51.174;4.160;2023-02-24T07:53:43;22.33;;;4.30;;
18776;SDS011;9517;51.174;4.160;2023-02-24T07:56:14;21.83;;;4.33;;
18776;SDS011;9517;51.174;4.160;2023-02-24T07:58:42;24.40;;;4.07;;
18776;SDS011;9517;51.174;4.160;2023-02-24T08:01:10;22.10;;;4.10;;
18776;SDS011;9517;51.174;4.160;2023-02-24T08:03:46;22.90;;;4.30;;
18776;SDS011;9517;51.174;4.160;2023-02-24T08:06:17;22.03;;;4.00;;
18776;SDS011;9517;51.174;4.160;2023-02-24T08:08:51;25.13;;;4.43;;
18776;SDS011;9517;51.174;4.160;2023-02-24T08:11:24;23.17;;;3.53;;
18776;SDS011;9517;51.174;4.160;2023-02-24T08:13:58;18.30;;;4.57;;
18776;SDS011;9517;51.174;4.160;2023-02-24T08:16:27;20.87;;;3.97;;
18776;SDS011;9517;51.174;4.160;2023-02-24T08:19:03;20.17;;;4.17;;
18776;SDS011;9517;51.174;4.160;2023-02-24T08:21:33;17.83;;;4.43;;
18776;SDS011;9517;51.174;4.160;2023-02-24T08:24:05;30.00;;;4.30;;
18776;SDS011;9517;51.174;4.160;2023-02-24T08:26:41;21.33;;;4.13;;
18776;SDS011;9517;51.174;4.160;2023-02-24T08:29:10;19.80;;;3.43;;
18776;SDS011;9517;51.174;4.160;2023-02-24T08:31:37;22.43;;;4.57;;
18776;SDS011;9517;51.174;4.160;2023-02-24T08:34:04;26.47;;;3.50;;
18776;SDS011;9517;51.174;4.160;2023-02-24T08:36:33;26.20;;;3.93;;
18776;SDS011;9517;51.174;4.160;2023-02-24T08:39:00;19.83;;;3.77;;
18776;SDS011;9517;51.174;4.160;2023-02-24T08:41:30;20.90;;;4.00;;
18776;SDS011;9517;51.174;4.160;2023-02-24T08:44:13;26.57;;;3.43;;
18776;SDS011;9517;51.174;4.160;2023-02-24T08:46:43;19.50;;;4.57;;
18776;SDS011;9517;51.174;4.160;2023-02-24T08:49:13;22.13;;;3.57;;
18776;SDS011;9517;51.174;4.160;2023-02-24T08:51:43;21.87;;;3.57;;
18776;SDS011;9517;51.174;4.160;2023-02-24T08:54:12;21.50;;;4.10;;
18776;SDS011;9517;51.174;4.160;2023-02-24T08:56:41;18.67;;;4.43;;
18776;SDS011;9517;51.174;4.160;2023-02-24T08:59:14;25.00;;;5.10;;
18776;SDS011;9517;51.174;4.160;2023-02-24T09:02:02;28.07;;;5.20;;
18776;SDS011;9517;51.174;4.160;2023-02-24T09:04:49;19.73;;;4.53;;
18776;SDS011;9517;51.174;4.160;2023-02-24T09:07:20;18.00;;;3.77;;
18776;SDS011;9517;51.174;4.160;2023-02-24T09:09:48;28.83;;;4.40;;
18776;SDS011;9517;51.174;4.160;2023-02-24T09:12:20;22.43;;;5.03;;
18776;SDS011;9517;51.174;4.160;2023-02-24T09:14:49;25.13;;;5.17;;
18776;SDS011;9517;51.174;4.160;2023-02-24T09:17:20;23.87;;;4.53;;
18776;SDS011;9517;51.174;4.160;2023-02-24T09:20:07;24.17;;;4.83;;
18776;SDS011;9517;51.174;4.160;2023-02-24T09:23:21;19.00;;;5.77;;
18776;SDS011;9517;51.174;4.160;2023-02-24T09:25:55;18.63;;;5.00;;
18776;SDS011;9517;51.174;4.160;2023-02-24T09:28:23;14.87;;;4.03;;
18776;SDS011;9517;51.174;4.160;2023-02-24T09:30:52;16.03;;;3.93;;
18776;SDS011;9517;51.174;4.160;2023-02-24T09:33:21;19.03;;;4.07;;
18776;SDS011;9517;51.174;4.160;2023-02-24T09:35:54;27.00;;;4.70;;
18776;SDS011;9517;51.174;4.160;2023-02-24T09:38:35;13.97;;;3.63;;
18776;SDS011;9517;51.174;4.160;2023-02-24T09:41:23;13.60;;;3.53;;
18776;SDS011;9517;51.174;4.160;2023-02-24T09:44:00;19.73;;;3.60;;
18776;SDS011;9517;51.174;4.160;2023-02-24T09:46:44;21.77;;;3.63;;
18776;SDS011;9517;51.174;4.160;2023-02-24T09:49:21;15.40;;;3.53;;
18776;SDS011;9517;51.174;4.160;2023-02-24T09:51:51;17.90;;;3.80;;
18776;SDS011;9517;51.174;4.160;2023-02-24T09:54:39;15.13;;;3.13;;
18776;SDS011;9517;51.174;4.160;2023-02-24T09:57:15;22.07;;;4.63;;
18776;SDS011;9517;51.174;4.160;2023-02-24T09:59:50;16.43;;;3.50;;
18776;SDS011;9517;51.174;4.160;2023-02-24T10:02:47;16.77;;;4.00;;
18776;SDS011;9517;51.174;4.160;2023-02-24T10:05:29;17.47;;;4.63;;
18776;SDS011;9517;51.174;4.160;2023-02-24T10:08:02;16.50;;;3.87;;
18776;SDS011;9517;51.174;4.160;2023-02-24T10:10:35;15.63;;;3.50;;
18776;SDS011;9517;51.174;4.160;2023-02-24T10:13:05;16.47;;;4.43;;
18776;SDS011;9517;51.174;4.160;2023-02-24T10:15:40;17.67;;;4.00;;
18776;SDS011;9517;51.174;4.160;2023-02-24T10:18:30;17.17;;;4.07;;
18776;SDS011;9517;51.174;4.160;2023-02-24T10:21:03;18.43;;;3.80;;
18776;SDS011;9517;51.174;4.160;2023-02-24T10:23:44;20.97;;;3.50;;
18776;SDS011;9517;51.174;4.160;2023-02-24T10:26:23;16.10;;;3.77;;
18776;SDS011;9517;51.174;4.160;2023-02-24T10:29:10;19.00;;;4.00;;
18776;SDS011;9517;51.174;4.160;2023-02-24T10:31:54;16.10;;;3.67;;
18776;SDS011;9517;51.174;4.160;2023-02-24T10:34:31;18.90;;;3.70;;
18776;SDS011;9517;51.174;4.160;2023-02-24T10:36:59;23.03;;;4.57;;
18776;SDS011;9517;51.174;4.160;2023-02-24T10:39:30;15.23;;;3.57;;
18776;SDS011;9517;51.174;4.160;2023-02-24T10:42:00;16.30;;;3.63;;
18776;SDS011;9517;51.174;4.160;2023-02-24T10:44:41;18.77;;;3.97;;
18776;SDS011;9517;51.174;4.160;2023-02-24T10:47:17;22.83;;;4.60;;
18776;SDS011;9517;51.174;4.160;2023-02-24T10:49:46;20.43;;;4.10;;
18776;SDS011;9517;51.174;4.160;2023-02-24T10:52:25;20.47;;;5.03;;
18776;SDS011;9517;51.174;4.160;2023-02-24T10:55:14;11.93;;;3.40;;
18776;SDS011;9517;51.174;4.160;2023-02-24T10:58:20;25.57;;;4.13;;
18776;SDS011;9517;51.174;4.160;2023-02-24T11:01:06;19.63;;;4.47;;
18776;SDS011;9517;51.174;4.160;2023-02-24T11:03:46;25.67;;;5.30;;
18776;SDS011;9517;51.174;4.160;2023-02-24T11:06:26;18.70;;;4.60;;
18776;SDS011;9517;51.174;4.160;2023-02-24T11:09:17;21.97;;;4.83;;
18776;SDS011;9517;51.174;4.160;2023-02-24T11:12:01;22.67;;;4.47;;
18776;SDS011;9517;51.174;4.160;2023-02-24T11:14:51;22.33;;;5.20;;
18776;SDS011;9517;51.174;4.160;2023-02-24T11:17:44;18.63;;;3.80;;
18776;SDS011;9517;51.174;4.160;2023-02-24T11:23:00;20.90;;;4.80;;
18776;SDS011;9517;51.174;4.160;2023-02-24T11:25:33;15.27;;;3.93;;
18776;SDS011;9517;51.174;4.160;2023-02-24T11:28:04;20.77;;;4.17;;
18776;SDS011;9517;51.174;4.160;2023-02-24T11:30:43;18.83;;;4.57;;
18776;SDS011;9517;51.174;4.160;2023-02-24T11:33:18;21.63;;;4.03;;
18776;SDS011;9517;51.174;4.160;2023-02-24T11:36:10;15.47;;;4.33;;
18776;SDS011;9517;51.174;4.160;2023-02-24T11:38:52;19.53;;;4.47;;
18776;SDS011;9517;51.174;4.160;2023-02-24T11:41:31;16.80;;;4.20;;
18776;SDS011;9517;51.174;4.160;2023-02-24T11:44:03;15.87;;;4.17;;
18776;SDS011;9517;51.174;4.160;2023-02-24T11:46:37;19.67;;;5.00;;
18776;SDS011;9517;51.174;4.160;2023-02-24T11:49:10;17.83;;;4.90;;
18776;SDS011;9517;51.174;4.160;2023-02-24T11:51:50;17.97;;;4.80;;
18776;SDS011;9517;51.174;4.160;2023-02-24T11:54:19;19.87;;;5.53;;
18776;SDS011;9517;51.174;4.160;2023-02-24T11:56:49;19.07;;;4.77;;
18776;SDS011;9517;51.174;4.160;2023-02-24T11:59:25;16.30;;;4.80;;
18776;SDS011;9517;51.174;4.160;2023-02-24T12:02:01;19.33;;;4.83;;
18776;SDS011;9517;51.174;4.160;2023-02-24T12:04:39;25.60;;;5.43;;
18776;SDS011;9517;51.174;4.160;2023-02-24T12:07:13;24.07;;;5.67;;
18776;SDS011;9517;51.174;4.160;2023-02-24T12:09:48;20.80;;;5.13;;
18776;SDS011;9517;51.174;4.160;2023-02-24T12:12:19;19.23;;;5.17;;
18776;SDS011;9517;51.174;4.160;2023-02-24T12:14:50;18.23;;;5.47;;
18776;SDS011;9517;51.174;4.160;2023-02-24T12:17:25;20.43;;;4.83;;
18776;SDS011;9517;51.174;4.160;2023-02-24T12:19:58;13.93;;;4.13;;
18776;SDS011;9517;51.174;4.160;2023-02-24T12:22:32;21.97;;;4.77;;
18776;SDS011;9517;51.174;4.160;2023-02-24T12:25:10;19.43;;;5.20;;
18776;SDS011;9517;51.174;4.160;2023-02-24T12:27:40;17.93;;;5.00;;
18776;SDS011;9517;51.174;4.160;2023-02-24T12:30:25;16.13;;;4.70;;
18776;SDS011;9517;51.174;4.160;2023-02-24T12:33:18;16.83;;;5.03;;
18776;SDS011;9517;51.174;4.160;2023-02-24T12:35:56;15.13;;;4.57;;
18776;SDS011;9517;51.174;4.160;2023-02-24T12:38:34;17.83;;;5.00;;
18776;SDS011;9517;51.174;4.160;2023-02-24T12:41:14;20.40;;;5.63;;
18776;SDS011;9517;51.174;4.160;2023-02-24T12:44:00;19.47;;;5.23;;
18776;SDS011;9517;51.174;4.160;2023-02-24T12:46:32;21.00;;;6.03;;
18776;SDS011;9517;51.174;4.160;2023-02-24T12:49:24;16.97;;;5.00;;
18776;SDS011;9517;51.174;4.160;2023-02-24T12:52:04;17.37;;;5.53;;
18776;SDS011;9517;51.174;4.160;2023-02-24T12:54:42;22.20;;;5.17;;
18776;SDS011;9517;51.174;4.160;2023-02-24T12:57:16;24.33;;;5.97;;
18776;SDS011;9517;51.174;4.160;2023-02-24T12:59:50;18.00;;;5.13;;
18776;SDS011;9517;51.174;4.160;2023-02-24T13:02:21;24.50;;;7.00;;
18776;SDS011;9517;51.174;4.160;2023-02-24T13:05:01;25.77;;;7.50;;
18776;SDS011;9517;51.174;4.160;2023-02-24T13:07:35;26.07;;;7.03;;
18776;SDS011;9517;51.174;4.160;2023-02-24T13:10:16;23.10;;;7.00;;
18776;SDS011;9517;51.174;4.160;2023-02-24T13:13:00;22.10;;;6.60;;
18776;SDS011;9517;51.174;4.160;2023-02-24T13:15:35;20.97;;;7.60;;
18776;SDS011;9517;51.174;4.160;2023-02-24T13:18:02;21.80;;;7.70;;
18776;SDS011;9517;51.174;4.160;2023-02-24T13:20:33;21.87;;;8.63;;
18776;SDS011;9517;51.174;4.160;2023-02-24T13:23:16;19.70;;;8.47;;
18776;SDS011;9517;51.174;4.160;2023-02-24T13:25:48;24.33;;;9.60;;
18776;SDS011;9517;51.174;4.160;2023-02-24T13:28:21;23.73;;;8.63;;
18776;SDS011;9517;51.174;4.160;2023-02-24T13:30:56;19.73;;;8.67;;
18776;SDS011;9517;51.174;4.160;2023-02-24T13:33:28;19.90;;;9.43;;
18776;SDS011;9517;51.174;4.160;2023-02-24T13:36:17;23.53;;;10.50;;
18776;SDS011;9517;51.174;4.160;2023-02-24T13:38:46;21.30;;;8.93;;
18776;SDS011;9517;51.174;4.160;2023-02-24T13:41:23;19.70;;;9.40;;
18776;SDS011;9517;51.174;4.160;2023-02-24T13:44:21;19.93;;;9.70;;
18776;SDS011;9517;51.174;4.160;2023-02-24T13:46:54;18.03;;;9.77;;
18776;SDS011;9517;51.174;4.160;2023-02-24T13:49:42;21.33;;;10.33;;
18776;SDS011;9517;51.174;4.160;2023-02-24T13:52:28;24.47;;;10.60;;
18776;SDS011;9517;51.174;4.160;2023-02-24T13:55:19;19.63;;;10.23;;
18776;SDS011;9517;51.174;4.160;2023-02-24T13:58:01;17.60;;;9.60;;
18776;SDS011;9517;51.174;4.160;2023-02-24T14:00:48;21.67;;;9.70;;
18776;SDS011;9517;51.174;4.160;2023-02-24T14:03:24;18.80;;;10.60;;
18776;SDS011;9517;51.174;4.160;2023-02-24T14:05:54;19.77;;;10.40;;
18776;SDS011;9517;51.174;4.160;2023-02-24T14:08:26;17.40;;;9.83;;
18776;SDS011;9517;51.174;4.160;2023-02-24T14:11:01;20.77;;;11.47;;
18776;SDS011;9517;51.174;4.160;2023-02-24T14:13:29;19.17;;;10.73;;
18776;SDS011;9517;51.174;4.160;2023-02-24T14:15:58;22.07;;;11.33;;
18776;SDS011;9517;51.174;4.160;2023-02-24T14:18:31;22.90;;;11.90;;
18776;SDS011;9517;51.174;4.160;2023-02-24T14:20:58;21.20;;;11.53;;
18776;SDS011;9517;51.174;4.160;2023-02-24T14:23:27;21.87;;;11.50;;
18776;SDS011;9517;51.174;4.160;2023-02-24T14:25:57;23.10;;;12.23;;
18776;SDS011;9517;51.174;4.160;2023-02-24T14:28:27;23.67;;;11.40;;
18776;SDS011;9517;51.174;4.160;2023-02-24T14:30:56;25.57;;;13.23;;
18776;SDS011;9517;51.174;4.160;2023-02-24T14:33:27;26.33;;;14.17;;
18776;SDS011;9517;51.174;4.160;2023-02-24T14:35:55;26.63;;;13.83;;
18776;SDS011;9517;51.174;4.160;2023-02-24T14:38:29;26.13;;;14.30;;
18776;SDS011;9517;51.174;4.160;2023-02-24T14:40:57;30.93;;;15.47;;
18776;SDS011;9517;51.174;4.160;2023-02-24T14:43:25;32.03;;;14.07;;
18776;SDS011;9517;51.174;4.160;2023-02-24T14:45:52;31.50;;;15.23;;
18776;SDS011;9517;51.174;4.160;2023-02-24T14:48:25;26.80;;;15.20;;
18776;SDS011;9517;51.174;4.160;2023-02-24T14:50:54;25.40;;;13.90;;
18776;SDS011;9517;51.174;4.160;2023-02-24T14:53:24;28.83;;;15.20;;
18776;SDS011;9517;51.174;4.160;2023-02-24T14:55:58;29.57;;;15.60;;
18776;SDS011;9517;51.174;4.160;2023-02-24T14:58:29;28.53;;;15.03;;
18776;SDS011;9517;51.174;4.160;2023-02-24T15:01:13;39.60;;;17.47;;
18776;SDS011;9517;51.174;4.160;2023-02-24T15:03:46;27.57;;;14.77;;
18776;SDS011;9517;51.174;4.160;2023-02-24T15:06:17;29.00;;;13.93;;
18776;SDS011;9517;51.174;4.160;2023-02-24T15:08:51;33.40;;;15.07;;
18776;SDS011;9517;51.174;4.160;2023-02-24T15:11:24;30.53;;;14.67;;
18776;SDS011;9517;51.174;4.160;2023-02-24T15:13:54;28.07;;;13.20;;
18776;SDS011;9517;51.174;4.160;2023-02-24T15:16:25;32.60;;;13.60;;
18776;SDS011;9517;51.174;4.160;2023-02-24T15:18:57;28.33;;;13.33;;
18776;SDS011;9517;51.174;4.160;2023-02-24T15:21:26;37.17;;;13.50;;
18776;SDS011;9517;51.174;4.160;2023-02-24T15:23:59;28.47;;;13.50;;
18776;SDS011;9517;51.174;4.160;2023-02-24T15:26:31;32.60;;;14.60;;
18776;SDS011;9517;51.174;4.160;2023-02-24T15:29:00;28.73;;;14.10;;
18776;SDS011;9517;51.174;4.160;2023-02-24T15:31:29;33.83;;;14.27;;
18776;SDS011;9517;51.174;4.160;2023-02-24T15:33:56;31.40;;;14.27;;